sensor_id;sensor_type;location;lat;lon;timestamp;temperature;humidity
18153;DHT22;9202;51.578;7.734;2024-01-10T00:00:03;-3.90;99.90
18153;DHT22;9202;51.578;7.734;2024-01-10T00:02:07;-4.00;99.90
18153;DHT22;9202;51.578;7.734;2024-01-10T00:04:10;-4.00;99.90
18153;DHT22;9202;51.578;7.734;2024-01-10T00:06:19;-4.00;99.90
18153;DHT22;9202;51.578;7.734;2024-01-10T00:08:23;-4.00;99.90
18153;DHT22;9202;51.578;7.734;2024-01-10T00:12:50;-4.00;99.90
18153;DHT22;9202;51.578;7.734;2024-01-10T00:14:54;-4.00;99.90
18153;DHT22;9202;51.578;7.734;2024-01-10T00:16:56;-4.00;99.90
18153;DHT22;9202;51.578;7.734;2024-01-10T00:18:59;-4.10;99.90
18153;DHT22;9202;51.578;7.734;2024-01-10T00:21:02;-4.10;99.90
18153;DHT22;9202;51.578;7.734;2024-01-10T00:23:05;-4.10;99.90
18153;DHT22;9202;51.578;7.734;2024-01-10T00:25:10;-4.20;99.90
18153;DHT22;9202;51.578;7.734;2024-01-10T00:27:13;-4.20;99.90
18153;DHT22;9202;51.578;7.734;2024-01-10T00:29:15;-4.20;99.90
18153;DHT22;9202;51.578;7.734;2024-01-10T00:31:18;-4.20;99.90
18153;DHT22;9202;51.578;7.734;2024-01-10T00:33:21;-4.20;99.90
18153;DHT22;9202;51.578;7.734;2024-01-10T00:35:23;-4.20;99.90
18153;DHT22;9202;51.578;7.734;2024-01-10T00:37:27;-4.30;99.90
18153;DHT22;9202;51.578;7.734;2024-01-10T00:39:29;-4.20;99.90
18153;DHT22;9202;51.578;7.734;2024-01-10T00:41:32;-4.20;99.90
18153;DHT22;9202;51.578;7.734;2024-01-10T00:43:34;-4.30;99.90
18153;DHT22;9202;51.578;7.734;2024-01-10T00:45:37;-4.30;99.90
18153;DHT22;9202;51.578;7.734;2024-01-10T00:47:40;-4.30;99.90
18153;DHT22;9202;51.578;7.734;2024-01-10T00:49:42;-4.30;99.90
18153;DHT22;9202;51.578;7.734;2024-01-10T00:51:45;-4.30;99.90
18153;DHT22;9202;51.578;7.734;2024-01-10T00:53:48;-4.40;99.90
18153;DHT22;9202;51.578;7.734;2024-01-10T00:55:51;-4.30;99.90
18153;DHT22;9202;51.578;7.734;2024-01-10T00:57:53;-4.30;99.90
18153;DHT22;9202;51.578;7.734;2024-01-10T00:59:56;-4.40;99.90
18153;DHT22;9202;51.578;7.734;2024-01-10T01:01:59;-4.30;99.90
18153;DHT22;9202;51.578;7.734;2024-01-10T01:04:01;-4.40;99.90
18153;DHT22;9202;51.578;7.734;2024-01-10T01:06:04;-4.40;99.90
18153;DHT22;9202;51.578;7.734;2024-01-10T01:08:07;-4.50;99.90
18153;DHT22;9202;51.578;7.734;2024-01-10T01:10:09;-4.50;99.90
18153;DHT22;9202;51.578;7.734;2024-01-10T01:12:12;-4.40;99.90
18153;DHT22;9202;51.578;7.734;2024-01-10T01:14:15;-4.50;99.90
18153;DHT22;9202;51.578;7.734;2024-01-10T01:16:18;-4.50;99.90
18153;DHT22;9202;51.578;7.734;2024-01-10T01:18:20;-4.50;99.90
18153;DHT22;9202;51.578;7.734;2024-01-10T01:20:23;-4.60;99.90
18153;DHT22;9202;51.578;7.734;2024-01-10T01:22:26;-4.60;99.90
18153;DHT22;9202;51.578;7.734;2024-01-10T01:24:29;-4.70;99.90
18153;DHT22;9202;51.578;7.734;2024-01-10T01:26:31;-4.60;99.90
18153;DHT22;9202;51.578;7.734;2024-01-10T01:28:34;-4.70;99.90
18153;DHT22;9202;51.578;7.734;2024-01-10T01:30:37;-4.70;99.90
18153;DHT22;9202;51.578;7.734;2024-01-10T01:32:41;-4.70;99.90
18153;DHT22;9202;51.578;7.734;2024-01-10T01:34:43;-4.70;99.90
18153;DHT22;9202;51.578;7.734;2024-01-10T01:36:46;-4.70;99.90
18153;DHT22;9202;51.578;7.734;2024-01-10T01:38:49;-4.70;99.90
18153;DHT22;9202;51.578;7.734;2024-01-10T01:40:51;-4.70;99.90
18153;DHT22;9202;51.578;7.734;2024-01-10T01:42:54;-4.80;99.90
18153;DHT22;9202;51.578;7.734;2024-01-10T01:44:56;-4.80;99.90
18153;DHT22;9202;51.578;7.734;2024-01-10T01:46:59;-4.90;99.90
18153;DHT22;9202;51.578;7.734;2024-01-10T01:49:03;-4.70;99.90
18153;DHT22;9202;51.578;7.734;2024-01-10T01:51:06;-4.90;99.90
18153;DHT22;9202;51.578;7.734;2024-01-10T01:53:09;-5.00;99.90
18153;DHT22;9202;51.578;7.734;2024-01-10T01:55:12;-5.00;99.90
18153;DHT22;9202;51.578;7.734;2024-01-10T01:57:15;-5.10;99.90
18153;DHT22;9202;51.578;7.734;2024-01-10T01:59:18;-5.10;99.90
18153;DHT22;9202;51.578;7.734;2024-01-10T02:01:21;-5.10;99.90
18153;DHT22;9202;51.578;7.734;2024-01-10T02:03:24;-5.10;99.90
18153;DHT22;9202;51.578;7.734;2024-01-10T02:05:28;-5.20;99.90
18153;DHT22;9202;51.578;7.734;2024-01-10T02:07:31;-5.20;99.90
18153;DHT22;9202;51.578;7.734;2024-01-10T02:09:33;-5.20;99.90
18153;DHT22;9202;51.578;7.734;2024-01-10T02:11:36;-5.30;99.90
18153;DHT22;9202;51.578;7.734;2024-01-10T02:13:39;-5.30;99.90
18153;DHT22;9202;51.578;7.734;2024-01-10T02:15:43;-5.30;99.90
18153;DHT22;9202;51.578;7.734;2024-01-10T02:17:45;-5.30;99.90
18153;DHT22;9202;51.578;7.734;2024-01-10T02:19:48;-5.30;99.90
18153;DHT22;9202;51.578;7.734;2024-01-10T02:21:51;-5.40;99.90
18153;DHT22;9202;51.578;7.734;2024-01-10T02:23:54;-5.40;99.90
18153;DHT22;9202;51.578;7.734;2024-01-10T02:25:59;-5.40;99.90
18153;DHT22;9202;51.578;7.734;2024-01-10T02:28:02;-5.40;99.90
18153;DHT22;9202;51.578;7.734;2024-01-10T02:30:06;-5.40;99.90
18153;DHT22;9202;51.578;7.734;2024-01-10T02:32:09;-5.50;99.90
18153;DHT22;9202;51.578;7.734;2024-01-10T02:34:13;-5.50;99.90
18153;DHT22;9202;51.578;7.734;2024-01-10T02:36:16;-5.50;99.90
18153;DHT22;9202;51.578;7.734;2024-01-10T02:38:19;-5.50;99.90
18153;DHT22;9202;51.578;7.734;2024-01-10T02:40:25;-5.50;99.90
18153;DHT22;9202;51.578;7.734;2024-01-10T02:42:27;-5.50;99.90
18153;DHT22;9202;51.578;7.734;2024-01-10T02:44:30;-5.50;99.90
18153;DHT22;9202;51.578;7.734;2024-01-10T02:46:33;-5.50;99.90
18153;DHT22;9202;51.578;7.734;2024-01-10T02:48:35;-5.50;99.90
18153;DHT22;9202;51.578;7.734;2024-01-10T02:50:38;-5.50;99.90
18153;DHT22;9202;51.578;7.734;2024-01-10T02:52:40;-5.50;99.90
18153;DHT22;9202;51.578;7.734;2024-01-10T02:54:43;-5.50;99.90
18153;DHT22;9202;51.578;7.734;2024-01-10T02:56:46;-5.50;99.90
18153;DHT22;9202;51.578;7.734;2024-01-10T02:58:48;-5.40;99.90
18153;DHT22;9202;51.578;7.734;2024-01-10T03:00:51;-5.50;99.90
18153;DHT22;9202;51.578;7.734;2024-01-10T03:02:54;-5.60;99.90
18153;DHT22;9202;51.578;7.734;2024-01-10T03:04:57;-5.60;99.90
18153;DHT22;9202;51.578;7.734;2024-01-10T03:06:59;-5.70;99.90
18153;DHT22;9202;51.578;7.734;2024-01-10T03:09:02;-5.70;99.90
18153;DHT22;9202;51.578;7.734;2024-01-10T03:11:05;-5.70;99.90
18153;DHT22;9202;51.578;7.734;2024-01-10T03:13:08;-5.60;99.90
18153;DHT22;9202;51.578;7.734;2024-01-10T03:15:11;-5.70;99.90
18153;DHT22;9202;51.578;7.734;2024-01-10T03:17:13;-5.60;99.90
18153;DHT22;9202;51.578;7.734;2024-01-10T03:19:16;-5.60;99.90
18153;DHT22;9202;51.578;7.734;2024-01-10T03:21:18;-5.70;99.90
18153;DHT22;9202;51.578;7.734;2024-01-10T03:23:23;-5.70;99.90
18153;DHT22;9202;51.578;7.734;2024-01-10T03:25:25;-5.70;99.90
18153;DHT22;9202;51.578;7.734;2024-01-10T03:27:28;-5.70;99.90
18153;DHT22;9202;51.578;7.734;2024-01-10T03:29:31;-5.80;99.90
18153;DHT22;9202;51.578;7.734;2024-01-10T03:31:33;-5.70;99.90
18153;DHT22;9202;51.578;7.734;2024-01-10T03:33:36;-5.70;99.90
18153;DHT22;9202;51.578;7.734;2024-01-10T03:35:39;-5.60;99.90
18153;DHT22;9202;51.578;7.734;2024-01-10T03:37:41;-5.60;99.90
18153;DHT22;9202;51.578;7.734;2024-01-10T03:39:44;-5.40;99.90
18153;DHT22;9202;51.578;7.734;2024-01-10T03:41:47;-5.40;99.90
18153;DHT22;9202;51.578;7.734;2024-01-10T03:43:50;-5.40;99.90
18153;DHT22;9202;51.578;7.734;2024-01-10T03:45:52;-5.40;99.90
18153;DHT22;9202;51.578;7.734;2024-01-10T03:47:55;-5.30;99.90
18153;DHT22;9202;51.578;7.734;2024-01-10T03:49:58;-5.40;99.90
18153;DHT22;9202;51.578;7.734;2024-01-10T03:52:00;-5.40;99.90
18153;DHT22;9202;51.578;7.734;2024-01-10T03:54:03;-5.30;99.90
18153;DHT22;9202;51.578;7.734;2024-01-10T03:56:06;-5.30;99.90
18153;DHT22;9202;51.578;7.734;2024-01-10T03:58:09;-5.30;99.90
18153;DHT22;9202;51.578;7.734;2024-01-10T04:00:13;-5.30;99.90
18153;DHT22;9202;51.578;7.734;2024-01-10T04:02:15;-5.20;99.90
18153;DHT22;9202;51.578;7.734;2024-01-10T04:04:18;-5.20;99.90
18153;DHT22;9202;51.578;7.734;2024-01-10T04:06:21;-5.20;99.90
18153;DHT22;9202;51.578;7.734;2024-01-10T04:08:24;-5.20;99.90
18153;DHT22;9202;51.578;7.734;2024-01-10T04:10:28;-5.20;99.90
18153;DHT22;9202;51.578;7.734;2024-01-10T04:12:31;-5.20;99.90
18153;DHT22;9202;51.578;7.734;2024-01-10T04:14:34;-5.00;99.90
18153;DHT22;9202;51.578;7.734;2024-01-10T04:16:36;-5.20;99.90
18153;DHT22;9202;51.578;7.734;2024-01-10T04:18:39;-5.10;99.90
18153;DHT22;9202;51.578;7.734;2024-01-10T04:20:42;-5.20;99.90
18153;DHT22;9202;51.578;7.734;2024-01-10T04:22:46;-5.10;99.90
18153;DHT22;9202;51.578;7.734;2024-01-10T04:24:50;-5.20;99.90
18153;DHT22;9202;51.578;7.734;2024-01-10T04:26:52;-5.20;99.90
18153;DHT22;9202;51.578;7.734;2024-01-10T04:28:55;-5.20;99.90
18153;DHT22;9202;51.578;7.734;2024-01-10T04:30:58;-5.20;99.90
18153;DHT22;9202;51.578;7.734;2024-01-10T04:33:02;-5.30;99.90
18153;DHT22;9202;51.578;7.734;2024-01-10T04:35:06;-5.30;99.90
18153;DHT22;9202;51.578;7.734;2024-01-10T04:37:09;-5.20;99.90
18153;DHT22;9202;51.578;7.734;2024-01-10T04:39:12;-5.20;99.90
18153;DHT22;9202;51.578;7.734;2024-01-10T04:41:15;-5.10;99.90
18153;DHT22;9202;51.578;7.734;2024-01-10T04:43:18;-5.10;99.90
18153;DHT22;9202;51.578;7.734;2024-01-10T04:45:21;-5.10;99.90
18153;DHT22;9202;51.578;7.734;2024-01-10T04:47:24;-5.10;99.90
18153;DHT22;9202;51.578;7.734;2024-01-10T04:49:27;-5.10;99.90
18153;DHT22;9202;51.578;7.734;2024-01-10T04:51:30;-5.10;99.90
18153;DHT22;9202;51.578;7.734;2024-01-10T04:53:33;-5.10;99.90
18153;DHT22;9202;51.578;7.734;2024-01-10T04:55:36;-5.20;99.90
18153;DHT22;9202;51.578;7.734;2024-01-10T04:57:39;-5.20;99.90
18153;DHT22;9202;51.578;7.734;2024-01-10T04:59:42;-5.20;99.90
18153;DHT22;9202;51.578;7.734;2024-01-10T05:01:46;-5.20;99.90
18153;DHT22;9202;51.578;7.734;2024-01-10T05:03:49;-5.20;99.90
18153;DHT22;9202;51.578;7.734;2024-01-10T05:05:52;-5.20;99.90
18153;DHT22;9202;51.578;7.734;2024-01-10T05:07:55;-5.30;99.90
18153;DHT22;9202;51.578;7.734;2024-01-10T05:09:58;-5.30;99.90
18153;DHT22;9202;51.578;7.734;2024-01-10T05:12:01;-5.40;99.90
18153;DHT22;9202;51.578;7.734;2024-01-10T05:14:03;-5.40;99.90
18153;DHT22;9202;51.578;7.734;2024-01-10T05:16:06;-5.40;99.90
18153;DHT22;9202;51.578;7.734;2024-01-10T05:18:09;-5.40;99.90
18153;DHT22;9202;51.578;7.734;2024-01-10T05:20:13;-5.40;99.90
18153;DHT22;9202;51.578;7.734;2024-01-10T05:22:15;-5.40;99.90
18153;DHT22;9202;51.578;7.734;2024-01-10T05:24:18;-5.40;99.90
18153;DHT22;9202;51.578;7.734;2024-01-10T05:26:21;-5.40;99.90
18153;DHT22;9202;51.578;7.734;2024-01-10T05:28:24;-5.40;99.90
18153;DHT22;9202;51.578;7.734;2024-01-10T05:30:26;-5.40;99.90
18153;DHT22;9202;51.578;7.734;2024-01-10T05:32:30;-5.40;99.90
18153;DHT22;9202;51.578;7.734;2024-01-10T05:34:33;-5.40;99.90
18153;DHT22;9202;51.578;7.734;2024-01-10T05:36:36;-5.50;99.90
18153;DHT22;9202;51.578;7.734;2024-01-10T05:38:39;-5.50;99.90
18153;DHT22;9202;51.578;7.734;2024-01-10T05:40:43;-5.40;99.90
18153;DHT22;9202;51.578;7.734;2024-01-10T05:42:45;-5.40;99.90
18153;DHT22;9202;51.578;7.734;2024-01-10T05:44:48;-5.30;99.90
18153;DHT22;9202;51.578;7.734;2024-01-10T05:46:51;-5.30;99.90
18153;DHT22;9202;51.578;7.734;2024-01-10T05:48:54;-5.30;99.90
18153;DHT22;9202;51.578;7.734;2024-01-10T05:50:57;-5.30;99.90
18153;DHT22;9202;51.578;7.734;2024-01-10T05:53:00;-5.30;99.90
18153;DHT22;9202;51.578;7.734;2024-01-10T05:55:03;-5.30;99.90
18153;DHT22;9202;51.578;7.734;2024-01-10T05:57:06;-5.40;99.90
18153;DHT22;9202;51.578;7.734;2024-01-10T05:59:08;-5.40;99.90
18153;DHT22;9202;51.578;7.734;2024-01-10T06:01:13;-5.40;99.90
18153;DHT22;9202;51.578;7.734;2024-01-10T06:03:16;-5.40;99.90
18153;DHT22;9202;51.578;7.734;2024-01-10T06:05:19;-5.50;99.90
18153;DHT22;9202;51.578;7.734;2024-01-10T06:07:22;-5.40;99.90
18153;DHT22;9202;51.578;7.734;2024-01-10T06:09:24;-5.40;99.90
18153;DHT22;9202;51.578;7.734;2024-01-10T06:11:27;-5.40;99.90
18153;DHT22;9202;51.578;7.734;2024-01-10T06:15:53;-5.40;99.90
18153;DHT22;9202;51.578;7.734;2024-01-10T06:17:56;-4.60;99.90
18153;DHT22;9202;51.578;7.734;2024-01-10T06:19:59;-5.40;99.90
18153;DHT22;9202;51.578;7.734;2024-01-10T06:22:02;-5.30;99.90
18153;DHT22;9202;51.578;7.734;2024-01-10T06:24:05;-5.50;99.90
18153;DHT22;9202;51.578;7.734;2024-01-10T06:26:08;-5.60;99.90
18153;DHT22;9202;51.578;7.734;2024-01-10T06:28:11;-5.60;99.90
18153;DHT22;9202;51.578;7.734;2024-01-10T06:30:14;-5.60;99.90
18153;DHT22;9202;51.578;7.734;2024-01-10T06:32:17;-5.50;99.90
18153;DHT22;9202;51.578;7.734;2024-01-10T06:34:20;-5.50;99.90
18153;DHT22;9202;51.578;7.734;2024-01-10T06:36:24;-5.50;99.90
18153;DHT22;9202;51.578;7.734;2024-01-10T06:38:28;-5.50;99.90
18153;DHT22;9202;51.578;7.734;2024-01-10T06:40:33;-5.60;99.90
18153;DHT22;9202;51.578;7.734;2024-01-10T06:42:37;-5.60;99.90
18153;DHT22;9202;51.578;7.734;2024-01-10T06:44:41;-5.50;99.90
18153;DHT22;9202;51.578;7.734;2024-01-10T06:46:46;-5.60;99.90
18153;DHT22;9202;51.578;7.734;2024-01-10T06:48:50;-5.50;99.90
18153;DHT22;9202;51.578;7.734;2024-01-10T06:50:53;-5.50;99.90
18153;DHT22;9202;51.578;7.734;2024-01-10T06:52:56;-5.60;99.90
18153;DHT22;9202;51.578;7.734;2024-01-10T06:55:00;-5.60;99.90
18153;DHT22;9202;51.578;7.734;2024-01-10T06:57:03;-5.60;99.90
18153;DHT22;9202;51.578;7.734;2024-01-10T06:59:07;-5.60;99.90
18153;DHT22;9202;51.578;7.734;2024-01-10T07:01:13;-5.60;99.90
18153;DHT22;9202;51.578;7.734;2024-01-10T07:06:17;-5.70;99.90
18153;DHT22;9202;51.578;7.734;2024-01-10T07:08:21;-5.20;99.90
18153;DHT22;9202;51.578;7.734;2024-01-10T07:10:23;-5.70;99.90
18153;DHT22;9202;51.578;7.734;2024-01-10T07:12:28;-5.70;99.90
18153;DHT22;9202;51.578;7.734;2024-01-10T07:14:30;-5.70;99.90
18153;DHT22;9202;51.578;7.734;2024-01-10T07:16:33;-5.70;99.90
18153;DHT22;9202;51.578;7.734;2024-01-10T07:18:38;-5.60;99.90
18153;DHT22;9202;51.578;7.734;2024-01-10T07:20:42;-5.60;99.90
18153;DHT22;9202;51.578;7.734;2024-01-10T07:22:44;-5.50;99.90
18153;DHT22;9202;51.578;7.734;2024-01-10T07:24:50;-5.50;99.90
18153;DHT22;9202;51.578;7.734;2024-01-10T07:26:52;-5.40;99.90
18153;DHT22;9202;51.578;7.734;2024-01-10T07:28:55;-5.50;99.90
18153;DHT22;9202;51.578;7.734;2024-01-10T07:30:58;-5.40;99.90
18153;DHT22;9202;51.578;7.734;2024-01-10T07:33:01;-5.40;99.90
18153;DHT22;9202;51.578;7.734;2024-01-10T07:35:04;-5.40;99.90
18153;DHT22;9202;51.578;7.734;2024-01-10T07:37:07;-5.30;99.90
18153;DHT22;9202;51.578;7.734;2024-01-10T07:39:18;-5.40;99.90
18153;DHT22;9202;51.578;7.734;2024-01-10T07:41:21;-5.40;99.90
18153;DHT22;9202;51.578;7.734;2024-01-10T07:43:24;-5.40;99.90
18153;DHT22;9202;51.578;7.734;2024-01-10T07:45:27;-5.40;99.90
18153;DHT22;9202;51.578;7.734;2024-01-10T07:47:39;-5.40;99.90
18153;DHT22;9202;51.578;7.734;2024-01-10T07:49:42;-5.50;99.90
18153;DHT22;9202;51.578;7.734;2024-01-10T07:51:45;-5.50;99.90
18153;DHT22;9202;51.578;7.734;2024-01-10T07:53:48;-5.50;99.90
18153;DHT22;9202;51.578;7.734;2024-01-10T07:55:51;-5.50;99.90
18153;DHT22;9202;51.578;7.734;2024-01-10T07:57:53;-5.40;99.90
18153;DHT22;9202;51.578;7.734;2024-01-10T07:59:56;-5.40;99.90
18153;DHT22;9202;51.578;7.734;2024-01-10T08:01:59;-5.40;99.90
18153;DHT22;9202;51.578;7.734;2024-01-10T08:04:03;-5.40;99.90
18153;DHT22;9202;51.578;7.734;2024-01-10T08:06:06;-5.30;99.90
18153;DHT22;9202;51.578;7.734;2024-01-10T08:08:11;-5.30;99.90
18153;DHT22;9202;51.578;7.734;2024-01-10T08:10:15;-5.20;99.90
18153;DHT22;9202;51.578;7.734;2024-01-10T08:12:17;-5.30;99.90
18153;DHT22;9202;51.578;7.734;2024-01-10T08:14:21;-5.20;99.90
18153;DHT22;9202;51.578;7.734;2024-01-10T08:16:24;-5.10;99.90
18153;DHT22;9202;51.578;7.734;2024-01-10T08:18:27;-4.90;99.90
18153;DHT22;9202;51.578;7.734;2024-01-10T08:20:30;-4.70;99.90
18153;DHT22;9202;51.578;7.734;2024-01-10T08:22:32;-4.50;99.90
18153;DHT22;9202;51.578;7.734;2024-01-10T08:24:35;-4.30;99.90
18153;DHT22;9202;51.578;7.734;2024-01-10T08:26:38;-4.20;99.90
18153;DHT22;9202;51.578;7.734;2024-01-10T08:28:40;-4.10;99.90
18153;DHT22;9202;51.578;7.734;2024-01-10T08:30:44;-4.00;99.90
18153;DHT22;9202;51.578;7.734;2024-01-10T08:32:47;-3.90;99.90
18153;DHT22;9202;51.578;7.734;2024-01-10T08:34:50;-4.00;99.90
18153;DHT22;9202;51.578;7.734;2024-01-10T08:36:53;-4.00;99.90
18153;DHT22;9202;51.578;7.734;2024-01-10T08:38:56;-3.90;99.90
18153;DHT22;9202;51.578;7.734;2024-01-10T08:40:58;-3.80;99.90
18153;DHT22;9202;51.578;7.734;2024-01-10T08:43:01;-3.80;99.90
18153;DHT22;9202;51.578;7.734;2024-01-10T08:45:05;-3.70;99.90
18153;DHT22;9202;51.578;7.734;2024-01-10T08:47:08;-3.70;99.90
18153;DHT22;9202;51.578;7.734;2024-01-10T08:49:11;-3.70;99.90
18153;DHT22;9202;51.578;7.734;2024-01-10T08:51:13;-3.60;99.90
18153;DHT22;9202;51.578;7.734;2024-01-10T08:53:18;-3.60;99.90
18153;DHT22;9202;51.578;7.734;2024-01-10T08:55:21;-3.50;99.90
18153;DHT22;9202;51.578;7.734;2024-01-10T08:57:26;-3.40;99.90
18153;DHT22;9202;51.578;7.734;2024-01-10T08:59:29;-3.40;99.90
18153;DHT22;9202;51.578;7.734;2024-01-10T09:01:32;-3.40;99.90
18153;DHT22;9202;51.578;7.734;2024-01-10T09:03:35;-3.30;99.90
18153;DHT22;9202;51.578;7.734;2024-01-10T09:05:38;-3.30;99.90
18153;DHT22;9202;51.578;7.734;2024-01-10T09:07:40;-3.20;99.90
18153;DHT22;9202;51.578;7.734;2024-01-10T09:09:44;-3.30;99.90
18153;DHT22;9202;51.578;7.734;2024-01-10T09:11:46;-3.20;99.90
18153;DHT22;9202;51.578;7.734;2024-01-10T09:13:50;-3.20;99.90
18153;DHT22;9202;51.578;7.734;2024-01-10T09:15:53;-3.20;99.90
18153;DHT22;9202;51.578;7.734;2024-01-10T09:17:55;-3.10;99.90
18153;DHT22;9202;51.578;7.734;2024-01-10T09:19:58;-3.10;99.90
18153;DHT22;9202;51.578;7.734;2024-01-10T09:22:01;-3.10;99.90
18153;DHT22;9202;51.578;7.734;2024-01-10T09:24:04;-3.10;99.90
18153;DHT22;9202;51.578;7.734;2024-01-10T09:26:11;-3.10;99.90
18153;DHT22;9202;51.578;7.734;2024-01-10T09:28:14;-3.10;99.90
18153;DHT22;9202;51.578;7.734;2024-01-10T09:30:17;-2.90;99.90
18153;DHT22;9202;51.578;7.734;2024-01-10T09:32:20;-3.00;99.90
18153;DHT22;9202;51.578;7.734;2024-01-10T09:34:22;-3.00;99.90
18153;DHT22;9202;51.578;7.734;2024-01-10T09:36:25;-3.00;99.90
18153;DHT22;9202;51.578;7.734;2024-01-10T09:38:28;-3.00;99.90
18153;DHT22;9202;51.578;7.734;2024-01-10T09:40:31;-2.90;99.90
18153;DHT22;9202;51.578;7.734;2024-01-10T09:42:33;-2.90;99.90
18153;DHT22;9202;51.578;7.734;2024-01-10T09:44:38;-2.90;99.90
18153;DHT22;9202;51.578;7.734;2024-01-10T09:46:41;-2.80;99.90
18153;DHT22;9202;51.578;7.734;2024-01-10T09:48:45;-2.70;99.90
18153;DHT22;9202;51.578;7.734;2024-01-10T09:50:50;-2.70;99.90
18153;DHT22;9202;51.578;7.734;2024-01-10T09:53:07;-2.60;99.90
18153;DHT22;9202;51.578;7.734;2024-01-10T09:55:22;-2.60;99.90
18153;DHT22;9202;51.578;7.734;2024-01-10T09:57:28;-2.50;99.90
18153;DHT22;9202;51.578;7.734;2024-01-10T10:04:00;-2.40;99.90
18153;DHT22;9202;51.578;7.734;2024-01-10T10:06:04;-2.40;99.90
18153;DHT22;9202;51.578;7.734;2024-01-10T10:08:15;-2.30;99.90
18153;DHT22;9202;51.578;7.734;2024-01-10T10:10:38;-2.20;99.90
18153;DHT22;9202;51.578;7.734;2024-01-10T10:12:43;-2.00;99.90
18153;DHT22;9202;51.578;7.734;2024-01-10T10:14:48;-2.00;99.90
18153;DHT22;9202;51.578;7.734;2024-01-10T10:16:50;-1.80;99.90
18153;DHT22;9202;51.578;7.734;2024-01-10T10:18:54;-1.80;99.90
18153;DHT22;9202;51.578;7.734;2024-01-10T10:21:08;-1.70;99.90
18153;DHT22;9202;51.578;7.734;2024-01-10T10:23:11;-1.60;99.90
18153;DHT22;9202;51.578;7.734;2024-01-10T10:25:16;-1.60;99.90
18153;DHT22;9202;51.578;7.734;2024-01-10T10:27:18;-1.50;99.90
18153;DHT22;9202;51.578;7.734;2024-01-10T10:29:21;-1.50;99.90
18153;DHT22;9202;51.578;7.734;2024-01-10T10:31:24;-1.30;99.90
18153;DHT22;9202;51.578;7.734;2024-01-10T10:33:27;-1.10;99.90
18153;DHT22;9202;51.578;7.734;2024-01-10T10:35:29;-1.00;99.90
18153;DHT22;9202;51.578;7.734;2024-01-10T10:37:34;-1.00;99.90
18153;DHT22;9202;51.578;7.734;2024-01-10T10:39:37;-0.80;99.90
18153;DHT22;9202;51.578;7.734;2024-01-10T10:41:39;-0.80;99.80
18153;DHT22;9202;51.578;7.734;2024-01-10T10:43:43;-0.80;99.80
18153;DHT22;9202;51.578;7.734;2024-01-10T10:45:46;-0.70;99.90
18153;DHT22;9202;51.578;7.734;2024-01-10T10:47:49;-0.50;99.90
18153;DHT22;9202;51.578;7.734;2024-01-10T10:49:52;-0.50;99.90
18153;DHT22;9202;51.578;7.734;2024-01-10T10:51:57;-0.60;99.50
18153;DHT22;9202;51.578;7.734;2024-01-10T10:54:00;-0.50;99.60
18153;DHT22;9202;51.578;7.734;2024-01-10T10:56:03;-0.50;99.00
18153;DHT22;9202;51.578;7.734;2024-01-10T10:58:12;-0.60;98.60
18153;DHT22;9202;51.578;7.734;2024-01-10T11:00:18;-0.70;98.40
18153;DHT22;9202;51.578;7.734;2024-01-10T11:02:21;-0.50;99.20
18153;DHT22;9202;51.578;7.734;2024-01-10T11:04:27;-0.40;99.40
18153;DHT22;9202;51.578;7.734;2024-01-10T11:06:32;-0.30;99.60
18153;DHT22;9202;51.578;7.734;2024-01-10T11:08:36;-0.30;99.40
18153;DHT22;9202;51.578;7.734;2024-01-10T11:10:40;-0.30;99.70
18153;DHT22;9202;51.578;7.734;2024-01-10T11:12:55;-0.30;98.90
18153;DHT22;9202;51.578;7.734;2024-01-10T11:15:09;-0.30;99.10
18153;DHT22;9202;51.578;7.734;2024-01-10T11:17:18;-0.20;99.40
18153;DHT22;9202;51.578;7.734;2024-01-10T11:19:27;-0.20;99.50
18153;DHT22;9202;51.578;7.734;2024-01-10T11:21:32;0.00;99.30
18153;DHT22;9202;51.578;7.734;2024-01-10T11:23:38;0.10;99.50
18153;DHT22;9202;51.578;7.734;2024-01-10T11:25:41;0.10;99.00
18153;DHT22;9202;51.578;7.734;2024-01-10T11:27:44;0.00;98.80
18153;DHT22;9202;51.578;7.734;2024-01-10T11:29:48;0.00;99.90
18153;DHT22;9202;51.578;7.734;2024-01-10T11:31:51;0.10;98.80
18153;DHT22;9202;51.578;7.734;2024-01-10T11:33:55;0.00;98.90
18153;DHT22;9202;51.578;7.734;2024-01-10T11:36:08;0.20;99.10
18153;DHT22;9202;51.578;7.734;2024-01-10T11:38:12;0.30;99.60
18153;DHT22;9202;51.578;7.734;2024-01-10T11:40:15;0.40;98.80
18153;DHT22;9202;51.578;7.734;2024-01-10T11:42:23;0.40;98.90
18153;DHT22;9202;51.578;7.734;2024-01-10T11:44:27;0.40;98.90
18153;DHT22;9202;51.578;7.734;2024-01-10T11:46:32;0.50;99.10
18153;DHT22;9202;51.578;7.734;2024-01-10T11:48:41;0.50;98.50
18153;DHT22;9202;51.578;7.734;2024-01-10T11:50:44;0.60;98.80
18153;DHT22;9202;51.578;7.734;2024-01-10T11:52:47;0.60;98.50
18153;DHT22;9202;51.578;7.734;2024-01-10T11:54:49;0.50;97.70
18153;DHT22;9202;51.578;7.734;2024-01-10T11:56:52;0.50;97.80
18153;DHT22;9202;51.578;7.734;2024-01-10T11:59:06;0.50;98.10
18153;DHT22;9202;51.578;7.734;2024-01-10T12:01:11;0.60;98.50
18153;DHT22;9202;51.578;7.734;2024-01-10T12:03:15;0.70;98.10
18153;DHT22;9202;51.578;7.734;2024-01-10T12:05:18;0.80;98.70
18153;DHT22;9202;51.578;7.734;2024-01-10T12:07:21;0.70;98.20
18153;DHT22;9202;51.578;7.734;2024-01-10T12:09:25;0.70;98.00
18153;DHT22;9202;51.578;7.734;2024-01-10T12:11:28;0.80;98.70
18153;DHT22;9202;51.578;7.734;2024-01-10T12:13:31;0.80;98.70
18153;DHT22;9202;51.578;7.734;2024-01-10T12:15:34;0.90;98.50
18153;DHT22;9202;51.578;7.734;2024-01-10T12:17:37;0.90;97.90
18153;DHT22;9202;51.578;7.734;2024-01-10T12:19:40;1.00;98.20
18153;DHT22;9202;51.578;7.734;2024-01-10T12:21:45;1.00;98.30
18153;DHT22;9202;51.578;7.734;2024-01-10T12:23:49;1.00;98.00
18153;DHT22;9202;51.578;7.734;2024-01-10T12:25:53;0.90;97.90
18153;DHT22;9202;51.578;7.734;2024-01-10T12:27:55;0.90;98.00
18153;DHT22;9202;51.578;7.734;2024-01-10T12:30:00;0.90;98.20
18153;DHT22;9202;51.578;7.734;2024-01-10T12:32:05;1.00;98.60
18153;DHT22;9202;51.578;7.734;2024-01-10T12:34:08;1.00;97.60
18153;DHT22;9202;51.578;7.734;2024-01-10T12:36:12;0.90;98.10
18153;DHT22;9202;51.578;7.734;2024-01-10T12:38:15;0.90;98.20
18153;DHT22;9202;51.578;7.734;2024-01-10T12:40:20;1.00;98.50
18153;DHT22;9202;51.578;7.734;2024-01-10T12:42:27;1.00;98.30
18153;DHT22;9202;51.578;7.734;2024-01-10T12:44:32;1.10;99.10
18153;DHT22;9202;51.578;7.734;2024-01-10T12:46:36;1.10;98.40
18153;DHT22;9202;51.578;7.734;2024-01-10T12:48:40;1.20;99.30
18153;DHT22;9202;51.578;7.734;2024-01-10T12:50:44;1.10;98.30
18153;DHT22;9202;51.578;7.734;2024-01-10T12:52:47;1.10;98.10
18153;DHT22;9202;51.578;7.734;2024-01-10T12:54:51;1.20;98.40
18153;DHT22;9202;51.578;7.734;2024-01-10T12:56:53;1.20;97.80
18153;DHT22;9202;51.578;7.734;2024-01-10T12:58:58;1.10;97.50
18153;DHT22;9202;51.578;7.734;2024-01-10T13:01:00;1.10;97.90
18153;DHT22;9202;51.578;7.734;2024-01-10T13:03:04;1.00;97.70
18153;DHT22;9202;51.578;7.734;2024-01-10T13:05:07;1.00;97.80
18153;DHT22;9202;51.578;7.734;2024-01-10T13:07:11;0.90;98.50
18153;DHT22;9202;51.578;7.734;2024-01-10T13:09:14;1.00;98.50
18153;DHT22;9202;51.578;7.734;2024-01-10T13:11:17;1.00;97.80
18153;DHT22;9202;51.578;7.734;2024-01-10T13:13:20;1.00;98.50
18153;DHT22;9202;51.578;7.734;2024-01-10T13:15:23;1.00;98.40
18153;DHT22;9202;51.578;7.734;2024-01-10T13:17:26;1.00;98.00
18153;DHT22;9202;51.578;7.734;2024-01-10T13:19:29;0.90;97.50
18153;DHT22;9202;51.578;7.734;2024-01-10T13:21:32;0.80;97.60
18153;DHT22;9202;51.578;7.734;2024-01-10T13:23:36;0.90;98.10
18153;DHT22;9202;51.578;7.734;2024-01-10T13:25:39;0.90;97.90